Time;durP1;ratioP1;P1;durP2;ratioP2;P2;SDS_P1;SDS_P2;PMS_P1;PMS_P2;Temp;Humidity;BMP_temperature;BMP_pressure;BME280_temperature;BME280_humidity;BME280_pressure;Samples;Min_cycle;Max_cycle;Signal;HPM_P1;HPM_P2
2021/12/18 00:01:51;;;;;;;1.77;1.52;;;;;;;-3.38;100.00;101171.06;5092182;28;20130;-67
2021/12/18 00:04:18;;;;;;;4.20;2.53;;;;;;;-3.41;100.00;101172.75;5092417;28;20040;-63
2021/12/18 00:06:46;;;;;;;4.10;3.13;;;;;;;-3.40;100.00;101159.19;5092266;28;20040;-64
2021/12/18 00:09:13;;;;;;;6.38;3.65;;;;;;;-3.37;100.00;101149.88;5092152;28;20134;-64
2021/12/18 00:11:40;;;;;;;5.80;3.78;;;;;;;-3.33;100.00;101153.31;5091876;28;20114;-61
2021/12/18 00:14:07;;;;;;;4.22;2.50;;;;;;;-3.28;100.00;101161.84;5092372;28;20565;-63
2021/12/18 00:16:34;;;;;;;5.88;3.53;;;;;;;-3.28;100.00;101149.97;5092136;28;20127;-64
2021/12/18 00:19:01;;;;;;;4.55;2.83;;;;;;;-3.24;100.00;101143.19;5092530;28;20134;-64
2021/12/18 00:21:28;;;;;;;1.75;1.50;;;;;;;-3.23;100.00;101133.88;5092194;28;20444;-63
2021/12/18 00:23:57;;;;;;;7.03;3.65;;;;;;;-3.20;100.00;101137.28;5092001;28;20044;-63
2021/12/18 00:26:24;;;;;;;5.22;3.00;;;;;;;-3.12;100.00;101145.00;5092077;28;20167;-62
2021/12/18 00:28:51;;;;;;;5.30;3.47;;;;;;;-3.11;100.00;101149.22;5091865;28;20039;-63
2021/12/18 00:31:18;;;;;;;4.90;3.35;;;;;;;-3.06;100.00;101139.94;5091995;28;20561;-64
2021/12/18 00:33:45;;;;;;;6.75;3.45;;;;;;;-3.03;100.00;101134.00;5091915;28;20577;-63
2021/12/18 00:36:12;;;;;;;6.53;3.67;;;;;;;-3.03;100.00;101137.44;5091775;28;20170;-64
2021/12/18 00:38:40;;;;;;;6.47;3.45;;;;;;;-2.96;100.00;101131.50;5091580;28;20101;-63
2021/12/18 00:41:34;;;;;;;7.53;4.05;;;;;;;-2.96;100.00;101112.84;5091539;28;20076;-63
2021/12/18 00:44:04;;;;;;;6.20;3.75;;;;;;;-2.93;100.00;101112.84;5091729;28;20044;-63
2021/12/18 00:46:34;;;;;;;5.28;3.33;;;;;;;-2.93;100.00;101100.13;5091881;28;20135;-63
2021/12/18 00:49:02;;;;;;;5.18;3.17;;;;;;;-2.91;100.00;101113.72;5091596;28;20139;-63
2021/12/18 00:51:29;;;;;;;6.72;4.03;;;;;;;-2.91;100.00;101108.63;5091956;28;20174;-63
2021/12/18 00:53:56;;;;;;;6.72;4.18;;;;;;;-2.93;100.00;101107.75;5092080;28;20047;-63
2021/12/18 00:56:24;;;;;;;;;;;;;;;-3.05;100.00;101108.56;5092295;28;20048;-63
2021/12/18 00:58:51;;;;;;;7.43;3.88;;;;;;;-3.11;100.00;101113.59;5095858;28;19927;-64
2021/12/18 01:01:20;;;;;;;7.82;3.78;;;;;;;-3.08;100.00;101108.53;5095605;28;20131;-67
2021/12/18 01:03:47;;;;;;;6.32;4.03;;;;;;;-3.09;100.00;101109.38;5096078;28;20075;-64
2021/12/18 01:06:15;;;;;;;6.60;3.95;;;;;;;-3.14;100.00;101106.78;5095487;28;20059;-64
2021/12/18 01:08:42;;;;;;;7.90;4.57;;;;;;;-3.19;100.00;101105.91;5095408;28;20470;-65
2021/12/18 01:11:31;;;;;;;7.60;4.10;;;;;;;-3.02;100.00;101102.63;5095303;28;20447;-64
2021/12/18 01:14:19;;;;;;;7.38;4.00;;;;;;;-2.65;100.00;101096.03;5095402;28;20094;-63
2021/12/18 01:16:57;;;;;;;7.72;3.95;;;;;;;-2.56;100.00;101072.31;5095016;28;20405;-67
2021/12/18 01:24:54;;;;;;;10.00;4.38;;;;;;;-2.62;100.00;101070.59;5054856;28;20064;-65
2021/12/18 01:27:21;;;;;;;7.38;4.32;;;;;;;-2.61;100.00;101081.63;5054814;28;20084;-62
2021/12/18 01:29:50;;;;;;;7.32;4.50;;;;;;;-2.81;100.00;101073.88;5054931;28;20132;-66
2021/12/18 01:32:17;;;;;;;8.73;4.18;;;;;;;-2.82;100.00;101083.22;5054658;28;20132;-64
2021/12/18 01:34:45;;;;;;;9.48;4.60;;;;;;;-2.89;100.00;101076.41;5054747;28;20466;-67
2021/12/18 01:37:12;;;;;;;6.30;4.35;;;;;;;-3.03;100.00;101068.69;5054562;28;20076;-67
2021/12/18 01:39:39;;;;;;;7.45;4.40;;;;;;;-2.97;100.00;101063.63;5054587;28;20136;-65
2021/12/18 01:42:36;;;;;;;6.70;4.30;;;;;;;-2.71;100.00;101051.00;5054651;28;20475;-66
2021/12/18 01:45:10;;;;;;;5.90;3.80;;;;;;;-2.41;100.00;101037.53;5054554;28;20099;-65
2021/12/18 01:53:07;;;;;;;6.10;3.40;;;;;;;-2.28;100.00;101027.38;5054449;28;20060;-67
2021/12/18 01:55:36;;;;;;;6.78;3.20;;;;;;;-2.30;100.00;101017.16;5054204;28;20049;-66
2021/12/18 01:58:04;;;;;;;7.25;3.95;;;;;;;-2.30;100.00;101009.50;5053921;28;20084;-66
2021/12/18 02:00:35;;;;;;;8.10;4.20;;;;;;;-2.25;100.00;101009.53;5054330;28;20153;-64
2021/12/18 02:03:03;;;;;;;4.50;2.70;;;;;;;-2.27;100.00;101011.22;5054321;28;20045;-67
2021/12/18 02:05:30;;;;;;;5.45;2.90;;;;;;;-2.21;100.00;101011.22;5054223;28;20588;-66
2021/12/18 02:07:57;;;;;;;7.10;2.53;;;;;;;-2.19;100.00;101007.81;5053406;28;20140;-65
2021/12/18 02:10:28;;;;;;;;;;;;;;;-2.12;100.00;101018.06;5054373;28;20059;-67
2021/12/18 02:13:01;;;;;;;3.85;2.25;;;;;;;-2.26;100.00;101023.97;5053935;28;19921;-68
2021/12/18 02:21:06;;;;;;;3.22;1.70;;;;;;;-2.38;100.00;101008.66;5093200;27;20059;-68
2021/12/18 02:23:33;;;;;;;2.05;1.50;;;;;;;-2.43;100.00;101013.75;5134855;27;20078;-69
2021/12/18 02:26:01;;;;;;;2.47;1.70;;;;;;;-2.37;100.00;101010.34;5134729;27;20039;-70
2021/12/18 02:28:28;;;;;;;4.57;1.75;;;;;;;-2.33;100.00;101012.06;5134607;27;20070;-70
2021/12/18 02:30:57;;;;;;;2.38;1.30;;;;;;;-2.39;100.00;101003.53;5134890;27;20047;-70
2021/12/18 02:33:24;;;;;;;2.53;1.30;;;;;;;-2.52;100.00;101006.06;5134902;27;20067;-68
2021/12/18 02:35:54;;;;;;;3.35;1.33;;;;;;;-2.59;100.00;100993.28;5134795;27;20090;-70
2021/12/18 02:38:29;;;;;;;2.00;1.38;;;;;;;-2.44;100.00;100990.78;5134716;27;20051;-67
2021/12/18 02:41:06;;;;;;;2.45;1.00;;;;;;;-2.47;100.00;100985.69;5134583;27;20054;-67
2021/12/18 02:43:35;;;;;;;1.98;1.00;;;;;;;-2.43;100.00;100979.75;5134448;27;20277;-67
2021/12/18 02:46:06;;;;;;;3.05;1.10;;;;;;;-2.48;100.00;100972.09;5134319;27;20475;-67
2021/12/18 02:48:35;;;;;;;3.38;0.90;;;;;;;-2.68;100.00;100974.59;5134642;27;20054;-68
2021/12/18 02:51:02;;;;;;;1.38;0.90;;;;;;;-2.85;100.00;100959.28;5134372;27;20400;-67
2021/12/18 02:53:30;;;;;;;1.33;1.00;;;;;;;-2.87;100.00;100958.41;5134303;27;20559;-69
2021/12/18 02:55:59;;;;;;;2.75;1.13;;;;;;;-3.03;100.00;100961.75;5134121;27;20147;-70
2021/12/18 02:58:26;;;;;;;1.20;0.90;;;;;;;-2.97;100.00;100969.41;5134052;27;20050;-69
2021/12/18 03:00:54;;;;;;;1.95;1.15;;;;;;;-3.16;100.00;100959.97;5134506;27;20088;-70
2021/12/18 03:03:25;;;;;;;2.08;1.17;;;;;;;-3.21;100.00;100964.22;5134103;27;20051;-69
2021/12/18 03:06:06;;;;;;;1.77;1.30;;;;;;;-3.19;100.00;100971.00;5134005;27;20097;-69
2021/12/18 03:08:44;;;;;;;1.20;1.13;;;;;;;-3.33;100.00;100968.41;5133781;27;20046;-70
2021/12/18 03:22:49;;;;;;;2.72;1.10;;;;;;;-3.05;100.00;100930.34;5113147;28;20047;-69
2021/12/18 03:25:21;;;;;;;2.53;1.42;;;;;;;-3.14;100.00;100933.69;5113118;28;20134;-67
2021/12/18 03:27:48;;;;;;;3.55;1.40;;;;;;;-3.23;100.00;100928.59;5113321;28;20108;-66
2021/12/18 03:30:15;;;;;;;;;;;;;;;-3.37;100.00;100935.28;5113569;28;20576;-64
2021/12/18 03:32:43;;;;;;;1.27;1.02;;;;;;;-3.36;100.00;100935.31;5113402;28;20315;-68
2021/12/18 03:35:11;;;;;;;2.78;1.25;;;;;;;-3.41;100.00;100931.06;5113208;28;20408;-67
2021/12/18 03:37:38;;;;;;;3.70;1.30;;;;;;;-3.38;100.00;100928.50;5113010;28;20046;-68
2021/12/18 03:40:07;;;;;;;1.90;1.30;;;;;;;-3.39;100.00;100932.75;5113130;28;20486;-68
2021/12/18 03:42:36;;;;;;;2.20;1.40;;;;;;;-3.52;100.00;100929.31;5113083;28;20079;-68
2021/12/18 03:45:04;;;;;;;2.10;1.48;;;;;;;-3.47;100.00;100928.44;5112956;28;20071;-66
2021/12/18 03:47:31;;;;;;;1.50;1.13;;;;;;;-3.39;100.00;100920.03;5113047;28;20044;-67
2021/12/18 03:49:58;;;;;;;3.30;1.35;;;;;;;-3.48;100.00;100922.53;5112813;28;20523;-68
2021/12/18 03:52:25;;;;;;;1.17;1.10;;;;;;;-3.18;100.00;100908.25;5112572;28;20405;-67
2021/12/18 03:54:52;;;;;;;;;;;;;;;-3.08;100.00;100894.72;5113334;28;20062;-66
2021/12/18 03:57:19;;;;;;;3.30;2.10;;;;;;;-3.16;100.00;100904.88;5112746;28;19920;-68
2021/12/18 03:59:48;;;;;;;1.90;1.33;;;;;;;-3.25;100.00;100897.19;5112802;28;20071;-68
2021/12/18 04:02:15;;;;;;;1.40;1.30;;;;;;;-3.26;100.00;100902.25;5112873;28;20487;-68
2021/12/18 04:04:44;;;;;;;2.13;1.30;;;;;;;-3.42;100.00;100892.00;5112821;28;20135;-66
2021/12/18 04:07:12;;;;;;;2.45;1.20;;;;;;;-3.38;100.00;100896.28;5112520;28;20397;-67
2021/12/18 04:09:39;;;;;;;1.83;1.30;;;;;;;-2.99;100.00;100878.59;5112775;28;20413;-67
2021/12/18 04:12:06;;;;;;;5.68;1.40;;;;;;;-2.83;100.00;100874.38;5112525;28;20584;-69
2021/12/18 04:14:33;;;;;;;1.98;1.40;;;;;;;-3.00;100.00;100859.94;5112824;28;20071;-67
2021/12/18 04:17:05;;;;;;;1.33;1.08;;;;;;;-3.22;100.00;100848.84;5112583;28;20408;-66
2021/12/18 04:19:33;;;;;;;1.27;1.05;;;;;;;-3.39;100.00;100865.72;5112161;28;20525;-64
2021/12/18 04:21:59;;;;;;;;;;;;;;;-3.39;100.00;100863.19;5113075;28;20051;-63
2021/12/18 04:24:26;;;;;;;1.23;1.10;;;;;;;-3.40;100.00;100858.97;5112596;28;20322;-63
2021/12/18 04:26:54;;;;;;;3.40;0.90;;;;;;;-3.28;100.00;100859.00;5112485;28;20142;-67
2021/12/18 04:29:20;;;;;;;0.85;0.85;;;;;;;-3.26;100.00;100847.16;5112638;28;20075;-66
2021/12/18 04:31:47;;;;;;;2.05;0.75;;;;;;;-3.32;100.00;100858.13;5115301;28;20134;-66
2021/12/18 04:34:16;;;;;;;3.60;0.88;;;;;;;-3.39;100.00;100851.34;5116717;28;20454;-63
2021/12/18 04:36:43;;;;;;;3.88;1.15;;;;;;;-3.37;100.00;100856.41;5116776;28;20048;-64
2021/12/18 04:39:10;;;;;;;0.73;0.73;;;;;;;-3.55;100.00;100854.66;5116496;28;20119;-64
2021/12/18 04:41:41;;;;;;;1.80;1.00;;;;;;;-3.65;100.00;100835.09;5116565;28;20065;-68
2021/12/18 04:44:08;;;;;;;2.10;1.23;;;;;;;-3.72;100.00;100846.97;5116359;28;20665;-65
2021/12/18 04:46:35;;;;;;;2.58;1.63;;;;;;;-3.75;100.00;100847.78;5116312;28;20039;-63
2021/12/18 04:49:02;;;;;;;2.45;1.90;;;;;;;-3.27;100.00;100840.34;5116215;28;20074;-69
2021/12/18 04:51:30;;;;;;;;;;;;;;;-3.20;100.00;100829.34;5116801;28;20134;-64
2021/12/18 04:53:57;;;;;;;3.08;1.90;;;;;;;-3.29;100.00;100822.53;5116290;28;20288;-63
2021/12/18 04:56:24;;;;;;;3.72;2.00;;;;;;;-3.35;100.00;100832.69;5115946;28;20043;-67
2021/12/18 04:58:51;;;;;;;2.33;2.08;;;;;;;-3.33;100.00;100822.53;5115815;28;20044;-64
2021/12/18 05:01:18;;;;;;;9.05;2.55;;;;;;;-3.38;100.00;100824.19;5116296;28;20048;-67
2021/12/18 05:03:47;;;;;;;4.30;2.22;;;;;;;-3.29;100.00;100822.53;5116198;28;20082;-68
2021/12/18 05:06:14;;;;;;;4.30;1.85;;;;;;;-3.32;100.00;100819.97;5116108;28;20043;-66
2021/12/18 05:08:43;;;;;;;2.58;1.65;;;;;;;-3.40;100.00;100811.47;5115874;28;20055;-63
2021/12/18 05:11:10;;;;;;;3.22;1.50;;;;;;;-3.45;100.00;100805.50;5116175;28;20135;-63
2021/12/18 05:13:37;;;;;;;4.38;1.20;;;;;;;-3.54;100.00;100802.94;5115747;28;20139;-65
2021/12/18 05:16:04;;;;;;;8.90;5.22;;;;;;;-3.64;100.00;100801.22;5115782;28;20139;-69
2021/12/18 05:18:32;;;;;;;17.75;10.43;;;;;;;-3.74;100.00;100805.41;5115887;28;20043;-68
2021/12/18 05:20:59;;;;;;;4.25;2.58;;;;;;;-3.79;100.00;100797.75;5115772;28;20498;-70
2021/12/18 05:23:26;;;;;;;3.08;1.85;;;;;;;-3.54;100.00;100796.16;5115697;28;20051;-66
2021/12/18 05:25:54;;;;;;;3.50;1.70;;;;;;;-3.31;100.00;100795.38;5115635;28;20048;-66
2021/12/18 05:28:21;;;;;;;2.65;1.80;;;;;;;-3.45;100.00;100787.69;5115630;28;20162;-66
2021/12/18 05:30:48;;;;;;;3.72;1.55;;;;;;;-3.49;100.00;100791.09;5115616;28;20039;-65
2021/12/18 05:33:15;;;;;;;1.98;1.30;;;;;;;-3.21;100.00;100786.06;5115563;28;20477;-66
2021/12/18 05:35:42;;;;;;;1.85;1.00;;;;;;;-3.14;100.00;100790.31;5115469;28;20071;-67
2021/12/18 05:38:09;;;;;;;1.13;1.02;;;;;;;-3.15;100.00;100788.63;5115166;28;20075;-65
2021/12/18 05:40:38;;;;;;;0.88;0.88;;;;;;;-3.23;100.00;100785.22;5115184;28;20130;-64
2021/12/18 05:43:08;;;;;;;1.10;0.95;;;;;;;-3.04;100.00;100775.91;5114089;28;20048;-65
2021/12/18 05:45:35;;;;;;;2.13;1.10;;;;;;;-3.00;100.00;100772.53;5115351;28;20082;-67
2021/12/18 05:48:02;;;;;;;0.95;0.95;;;;;;;-3.11;100.00;100772.50;5115148;28;20086;-65
2021/12/18 05:50:29;;;;;;;7.25;1.42;;;;;;;-3.42;100.00;100780.06;5115114;28;20573;-64
2021/12/18 05:52:58;;;;;;;2.28;1.20;;;;;;;-3.65;100.00;100774.91;5115260;28;20071;-64
2021/12/18 05:55:26;;;;;;;2.33;1.10;;;;;;;-3.65;100.00;100771.53;5115105;28;20079;-64
2021/12/18 05:57:53;;;;;;;1.42;1.10;;;;;;;-3.75;100.00;100766.44;5115188;28;20067;-64
2021/12/18 06:00:21;;;;;;;;;;;;;;;-3.92;100.00;100762.13;5115382;28;20053;-65
2021/12/18 06:02:48;;;;;;;1.60;1.10;;;;;;;-4.06;100.00;100754.41;5115217;28;19920;-64
2021/12/18 06:05:16;;;;;;;2.22;1.00;;;;;;;-4.11;100.00;100756.06;5115251;28;20177;-64
2021/12/18 06:07:54;;;;;;;4.38;1.27;;;;;;;-3.87;100.00;100755.34;5114683;28;20083;-64
2021/12/18 06:10:22;;;;;;;1.73;1.00;;;;;;;-3.43;100.00;100747.00;5115159;28;20056;-64
2021/12/18 06:12:49;;;;;;;1.40;1.17;;;;;;;-3.47;100.00;100737.66;5115165;28;20039;-64
2021/12/18 06:15:16;;;;;;;1.85;0.95;;;;;;;-3.62;100.00;100725.75;5115021;28;20174;-68
2021/12/18 06:17:45;;;;;;;3.30;1.05;;;;;;;-3.94;100.00;100713.81;5115073;28;20494;-64
2021/12/18 06:20:12;;;;;;;1.92;1.17;;;;;;;-4.13;100.00;100712.03;5114549;28;20048;-63
2021/12/18 06:22:39;;;;;;;3.22;1.30;;;;;;;-3.99;100.00;100711.22;5114554;28;20048;-64
2021/12/18 06:25:07;;;;;;;3.15;1.48;;;;;;;-3.88;100.00;100711.28;5114397;28;20139;-63
2021/12/18 06:27:35;;;;;;;1.70;1.25;;;;;;;-4.01;100.00;100707.00;5114262;28;20043;-63
2021/12/18 06:30:02;;;;;;;1.52;1.13;;;;;;;-4.08;100.00;100706.13;5114717;28;20130;-64
2021/12/18 06:32:29;;;;;;;3.67;1.60;;;;;;;-4.06;100.00;100703.59;5114356;28;20047;-64
2021/12/18 06:34:58;;;;;;;1.20;0.93;;;;;;;-3.96;100.00;100705.31;5114171;28;20474;-63
2021/12/18 06:37:25;;;;;;;1.40;1.05;;;;;;;-4.39;99.18;100698.38;5114245;28;20500;-63
2021/12/18 06:39:52;;;;;;;4.28;1.00;;;;;;;-4.60;100.00;100699.09;5114254;28;20134;-63
2021/12/18 06:42:19;;;;;;;0.80;0.80;;;;;;;-4.65;100.00;100687.19;5114345;28;20062;-63
2021/12/18 06:44:46;;;;;;;1.70;1.27;;;;;;;-4.68;100.00;100695.63;5114140;28;20075;-63
2021/12/18 06:47:13;;;;;;;4.85;1.27;;;;;;;-4.72;100.00;100688.84;5113876;28;20135;-64
2021/12/18 06:49:40;;;;;;;1.95;1.42;;;;;;;-4.67;100.00;100687.19;5113923;28;20122;-63
2021/12/18 06:52:09;;;;;;;2.55;1.40;;;;;;;-4.65;100.00;100679.56;5113954;28;20139;-63
2021/12/18 06:54:36;;;;;;;2.67;1.45;;;;;;;-4.71;100.00;100670.25;5113759;28;20047;-63
2021/12/18 06:57:03;;;;;;;4.75;1.60;;;;;;;-4.68;100.00;100669.41;5113913;28;20043;-63
2021/12/18 06:59:30;;;;;;;3.28;1.30;;;;;;;-4.13;100.00;100656.97;5113622;28;20069;-64
2021/12/18 07:01:57;;;;;;;6.00;2.08;;;;;;;-4.47;100.00;100661.06;5113782;28;20565;-63
2021/12/18 07:04:25;;;;;;;3.05;1.60;;;;;;;-4.63;100.00;100653.34;5113798;28;20071;-63
2021/12/18 07:06:52;;;;;;;2.00;1.23;;;;;;;-4.65;100.00;100649.97;5113829;28;20047;-64
2021/12/18 07:09:21;;;;;;;1.95;1.10;;;;;;;-4.54;100.00;100633.97;5113523;28;20054;-63
2021/12/18 07:11:48;;;;;;;1.90;1.10;;;;;;;-4.23;100.00;100628.16;5113586;28;20145;-63
2021/12/18 07:14:15;;;;;;;2.95;1.33;;;;;;;-3.79;100.00;100629.09;5113439;28;20098;-63
2021/12/18 07:16:42;;;;;;;1.60;1.02;;;;;;;-3.42;100.00;100626.59;5113499;28;20134;-63
2021/12/18 07:19:09;;;;;;;3.65;0.90;;;;;;;-3.11;100.00;100629.97;5113024;28;20058;-63
2021/12/18 07:21:36;;;;;;;4.45;1.10;;;;;;;-3.19;100.00;100627.44;5113292;28;20043;-64
2021/12/18 07:24:03;;;;;;;2.08;1.30;;;;;;;-3.29;100.00;100629.16;5113325;28;20044;-64
2021/12/18 07:26:32;;;;;;;;;;;;;;;-3.23;100.00;100622.38;5113631;28;20374;-63
2021/12/18 07:29:00;;;;;;;4.43;1.45;;;;;;;-3.30;100.00;100617.25;5113139;28;20274;-63
2021/12/18 07:31:27;;;;;;;3.15;1.23;;;;;;;-3.50;100.00;100617.25;5113334;28;20477;-64
2021/12/18 07:33:54;;;;;;;2.55;1.23;;;;;;;-3.39;100.00;100614.75;5113606;28;20401;-64
2021/12/18 07:36:21;;;;;;;2.70;1.10;;;;;;;-3.36;100.00;100621.53;5113398;28;20140;-64
2021/12/18 07:38:48;;;;;;;2.22;1.17;;;;;;;-3.57;100.00;100618.13;5112839;28;20132;-64
2021/12/18 07:41:15;;;;;;;3.03;1.00;;;;;;;-3.72;100.00;100611.31;5113186;28;20139;-64
2021/12/18 07:43:43;;;;;;;3.17;1.33;;;;;;;-3.88;100.00;100609.59;5113028;28;20062;-64
2021/12/18 07:46:10;;;;;;;3.30;1.23;;;;;;;-3.97;100.00;100607.03;5112771;28;20529;-64
2021/12/18 07:48:37;;;;;;;3.45;1.60;;;;;;;-3.99;100.00;100598.56;5112796;28;20050;-64
2021/12/18 07:51:04;;;;;;;2.92;1.95;;;;;;;-4.02;100.00;100596.84;5112813;28;20135;-64
2021/12/18 07:53:32;;;;;;;4.35;2.17;;;;;;;-3.87;100.00;100610.47;5112851;28;20074;-63
2021/12/18 07:55:59;;;;;;;4.93;1.73;;;;;;;-3.79;100.00;100613.84;5112768;28;20044;-64
2021/12/18 07:58:26;;;;;;;;;;;;;;;-3.69;100.00;100613.03;5113306;28;20138;-64
2021/12/18 08:00:54;;;;;;;3.47;1.45;;;;;;;-3.57;100.00;100607.94;5113200;28;19926;-66
2021/12/18 08:03:21;;;;;;;2.85;1.60;;;;;;;-3.60;100.00;100602.84;5112730;28;20039;-64
2021/12/18 08:05:48;;;;;;;4.57;1.75;;;;;;;-3.53;100.00;100603.69;5112245;28;20043;-64
2021/12/18 08:08:15;;;;;;;2.47;1.58;;;;;;;-3.34;100.00;100602.88;5112499;28;20082;-64
2021/12/18 08:10:42;;;;;;;5.07;2.20;;;;;;;-3.35;100.00;100592.66;5112541;28;20078;-64
2021/12/18 08:13:09;;;;;;;5.93;1.88;;;;;;;-2.97;100.00;100584.97;5112851;28;20082;-64
2021/12/18 08:15:36;;;;;;;;;;;;;;;-2.81;100.00;100588.34;5113060;28;20050;-64
2021/12/18 08:18:07;;;;;;;2.65;1.33;;;;;;;-2.58;100.00;100583.16;5112543;28;19920;-64
2021/12/18 08:20:35;;;;;;;4.32;1.55;;;;;;;-2.48;100.00;100572.06;5112419;28;20048;-64
2021/12/18 08:23:02;;;;;;;5.60;1.40;;;;;;;-2.37;100.00;100561.00;5112541;28;20075;-64
2021/12/18 08:25:30;;;;;;;2.58;1.10;;;;;;;-2.26;100.00;100557.53;5112817;28;20130;-63
2021/12/18 08:27:59;;;;;;;5.10;1.40;;;;;;;-2.27;100.00;100563.47;5112615;28;20079;-64
2021/12/18 08:30:26;;;;;;;3.08;1.60;;;;;;;-2.27;100.00;100557.53;5112665;28;20142;-64
2021/12/18 08:32:53;;;;;;;5.03;1.23;;;;;;;-2.36;100.00;100545.72;5112998;28;20075;-64
2021/12/18 08:35:22;;;;;;;5.00;1.23;;;;;;;-2.30;100.00;100552.47;5112260;28;20135;-64
2021/12/18 08:37:49;;;;;;;4.63;1.65;;;;;;;-2.31;100.00;100546.53;5112087;28;20047;-64
2021/12/18 08:40:16;;;;;;;3.95;1.15;;;;;;;-2.36;100.00;100537.19;5112295;28;20051;-64
2021/12/18 08:42:43;;;;;;;5.75;1.42;;;;;;;-2.30;100.00;100530.38;5112363;28;20043;-64
2021/12/18 08:45:10;;;;;;;2.00;1.05;;;;;;;-2.25;100.00;100528.63;5112413;28;20134;-64
2021/12/18 08:47:38;;;;;;;5.68;1.20;;;;;;;-2.32;100.00;100523.59;5112000;28;20147;-64
2021/12/18 08:50:07;;;;;;;4.75;1.60;;;;;;;-2.14;100.00;100520.09;5112317;28;20122;-63
2021/12/18 08:52:35;;;;;;;3.60;1.30;;;;;;;-2.01;100.00;100519.97;5112245;28;20047;-64
2021/12/18 08:55:03;;;;;;;1.75;1.40;;;;;;;-1.94;100.00;100505.50;5112633;28;20127;-64
2021/12/18 08:57:30;;;;;;;2.92;1.30;;;;;;;-1.84;100.00;100513.91;5112436;28;20477;-64
2021/12/18 08:59:57;;;;;;;3.08;1.30;;;;;;;-1.84;100.00;100503.72;5112367;28;20138;-64
2021/12/18 09:02:24;;;;;;;5.57;1.50;;;;;;;-1.76;100.00;100491.75;5112134;28;20054;-64
2021/12/18 09:04:51;;;;;;;7.22;1.20;;;;;;;-1.70;100.00;100491.69;5111986;28;20048;-64
2021/12/18 09:07:19;;;;;;;6.93;1.67;;;;;;;-1.62;100.00;100479.72;5112403;28;20449;-64
2021/12/18 09:09:47;;;;;;;4.85;1.60;;;;;;;-1.63;100.00;100490.75;5112163;28;20130;-66
2021/12/18 09:12:14;;;;;;;7.10;1.60;;;;;;;-1.56;100.00;100478.81;5112292;28;20070;-64
2021/12/18 09:14:41;;;;;;;6.55;1.38;;;;;;;-1.61;100.00;100476.28;5112148;28;20049;-64
2021/12/18 09:17:09;;;;;;;8.00;1.48;;;;;;;-1.78;100.00;100480.69;5112008;28;20502;-64
2021/12/18 09:19:36;;;;;;;17.50;6.03;;;;;;;-1.87;100.00;100473.97;5115774;28;20188;-63
2021/12/18 09:22:04;;;;;;;;;;;;;;;-1.95;100.00;100459.59;5116203;28;20490;-63
2021/12/18 09:24:31;;;;;;;11.73;4.50;;;;;;;-1.89;100.00;100460.41;5115841;28;19951;-64
2021/12/18 09:26:59;;;;;;;;;;;;;;;-1.93;100.00;100465.53;5116198;28;20122;-64
2021/12/18 09:29:26;;;;;;;9.98;1.80;;;;;;;-1.91;100.00;100454.47;5115657;28;20014;-65
2021/12/18 09:31:53;;;;;;;3.70;1.80;;;;;;;-1.76;100.00;100453.47;5115486;28;20075;-65
2021/12/18 09:34:20;;;;;;;5.05;1.42;;;;;;;-1.75;100.00;100452.59;5115400;28;20071;-64
2021/12/18 09:36:47;;;;;;;7.25;1.92;;;;;;;-1.72;100.00;100439.84;5115625;28;20135;-64
2021/12/18 09:39:15;;;;;;;9.32;2.22;;;;;;;-1.73;100.00;100435.59;5115077;28;20047;-64
2021/12/18 09:41:41;;;;;;;;;;;;;;;-1.66;100.00;100436.38;5115724;28;20047;-65
2021/12/18 09:44:10;;;;;;;4.53;1.75;;;;;;;-1.67;100.00;100422.78;5115079;28;19955;-64
2021/12/18 09:46:37;;;;;;;3.58;1.80;;;;;;;-1.69;100.00;100418.56;5115038;28;20078;-64
2021/12/18 09:49:04;;;;;;;5.55;1.70;;;;;;;-1.70;100.00;100410.03;5115243;28;20126;-64
2021/12/18 09:51:31;;;;;;;;;;;;;;;-1.46;100.00;100408.97;5115780;28;20075;-64
2021/12/18 09:53:59;;;;;;;6.50;1.85;;;;;;;-1.44;100.00;100398.72;5115114;28;19970;-64
2021/12/18 09:56:26;;;;;;;;;;;;;;;-1.35;100.00;100383.31;5115402;28;20127;-63
2021/12/18 09:58:52;;;;;;;;;;;;;;;-1.24;100.00;100383.16;5115198;28;20018;-65
2021/12/18 10:01:21;;;;;;;8.15;1.33;;;;;;;-1.08;100.00;100391.47;5114765;28;20310;-68
2021/12/18 10:03:49;;;;;;;8.10;1.60;;;;;;;-1.16;100.00;100383.91;5114907;28;20482;-64
2021/12/18 10:06:33;;;;;;;7.20;1.20;;;;;;;-1.13;100.00;100386.41;5114896;28;20043;-63
2021/12/18 10:09:00;;;;;;;5.15;1.20;;;;;;;-0.96;100.00;100378.56;5114445;28;20066;-64
2021/12/18 10:11:27;;;;;;;5.72;1.25;;;;;;;-0.95;100.00;100370.88;5114329;28;20130;-65
2021/12/18 10:13:56;;;;;;;2.58;1.10;;;;;;;-0.85;100.00;100374.13;5114464;28;20046;-64
2021/12/18 10:16:26;;;;;;;9.65;1.55;;;;;;;-0.78;100.00;100368.06;5114479;28;20576;-68
2021/12/18 10:18:54;;;;;;;3.92;1.10;;;;;;;-0.56;100.00;100367.75;5114656;28;20055;-64
2021/12/18 10:21:21;;;;;;;;;;;;;;;-0.58;100.00;100372.03;5114703;28;20475;-65
2021/12/18 10:23:50;;;;;;;3.05;1.05;;;;;;;-0.52;100.00;100371.94;5114282;28;20026;-64
2021/12/18 10:26:36;;;;;;;3.72;1.15;;;;;;;-0.48;99.14;100369.31;5114279;28;20139;-64
2021/12/18 10:29:05;;;;;;;6.85;1.33;;;;;;;-0.44;99.48;100357.31;5114079;28;20044;-64
2021/12/18 10:31:45;;;;;;;4.65;1.10;;;;;;;-0.47;99.73;100365.88;5114308;28;20146;-64
2021/12/18 10:34:17;;;;;;;6.82;1.85;;;;;;;-0.42;98.98;100362.41;5114136;28;20079;-64
2021/12/18 10:37:15;;;;;;;3.97;1.50;;;;;;;-0.37;98.82;100351.25;5114251;28;20135;-64
2021/12/18 10:39:44;;;;;;;4.32;1.27;;;;;;;-0.27;98.65;100355.34;5114097;28;20056;-63
2021/12/18 10:42:20;;;;;;;5.90;1.00;;;;;;;-0.21;97.72;100339.03;5114198;28;20135;-64
2021/12/18 10:45:09;;;;;;;8.82;1.30;;;;;;;-0.31;98.31;100330.72;5113965;28;20134;-64
2021/12/18 10:47:56;;;;;;;7.90;1.00;;;;;;;-0.32;98.93;100334.13;5114130;28;20071;-68
2021/12/18 10:50:28;;;;;;;5.30;1.20;;;;;;;-0.37;98.89;100335.06;5113837;28;20561;-63
2021/12/18 10:52:58;;;;;;;5.75;1.05;;;;;;;-0.15;98.41;100326.16;5113997;28;20447;-64
2021/12/18 10:55:35;;;;;;;6.10;1.40;;;;;;;-0.30;97.94;100324.72;5113655;28;20554;-64
2021/12/18 10:58:03;;;;;;;5.43;1.42;;;;;;;-0.24;98.00;100323.75;5113539;28;20040;-64
2021/12/18 11:00:49;;;;;;;7.30;1.35;;;;;;;-0.22;97.62;100314.34;5113501;28;20052;-64
2021/12/18 11:03:20;;;;;;;4.47;1.13;;;;;;;-0.13;97.62;100321.88;5113790;28;20126;-63
2021/12/18 11:06:10;;;;;;;7.88;1.02;;;;;;;-0.09;97.13;100313.25;5113543;28;20512;-63
2021/12/18 11:08:52;;;;;;;3.58;1.27;;;;;;;-0.15;97.67;100303.16;5113705;28;20127;-64
2021/12/18 11:14:05;;;;;;;10.48;1.30;;;;;;;-0.25;97.66;100292.25;5113726;28;20055;-64
2021/12/18 11:16:35;;;;;;;3.70;1.17;;;;;;;-0.17;98.14;100291.28;5113377;28;20506;-65
2021/12/18 11:19:05;;;;;;;5.75;1.30;;;;;;;-0.32;98.58;100287.25;5113526;28;20051;-63
2021/12/18 11:21:33;;;;;;;7.72;1.50;;;;;;;-0.29;98.01;100277.81;5113164;28;20055;-63
2021/12/18 11:24:04;;;;;;;5.85;1.30;;;;;;;-0.14;97.99;100280.97;5113287;28;20067;-66
2021/12/18 11:26:41;;;;;;;5.05;1.20;;;;;;;-0.14;98.09;100281.81;5112971;28;20044;-63
2021/12/18 11:29:12;;;;;;;4.80;1.42;;;;;;;-0.13;97.23;100278.41;5113404;28;20100;-63
2021/12/18 11:31:40;;;;;;;7.70;1.77;;;;;;;-0.29;98.28;100269.31;5113273;28;20051;-63
2021/12/18 11:34:09;;;;;;;2.85;1.20;;;;;;;-0.23;98.21;100266.66;5113398;28;20139;-64
2021/12/18 11:36:40;;;;;;;4.70;1.17;;;;;;;-0.38;98.89;100264.38;5113138;28;20490;-63
2021/12/18 11:39:08;;;;;;;5.28;1.60;;;;;;;-0.13;97.81;100270.72;5112986;28;20530;-67
2021/12/18 11:41:36;;;;;;;3.67;1.10;;;;;;;-0.25;98.30;100265.84;5112029;28;20142;-64
2021/12/18 11:44:23;;;;;;;4.85;1.45;;;;;;;-0.23;98.07;100262.38;5112745;28;20139;-63
2021/12/18 11:46:50;;;;;;;3.08;1.30;;;;;;;-0.27;98.25;100265.00;5112731;28;20139;-63
2021/12/18 11:49:21;;;;;;;5.13;1.35;;;;;;;-0.26;98.32;100251.34;5113176;28;20496;-63
2021/12/18 11:51:59;;;;;;;4.88;1.40;;;;;;;-0.34;98.34;100248.94;5112793;28;20052;-63
2021/12/18 11:54:41;;;;;;;6.30;1.13;;;;;;;-0.19;98.33;100250.38;5112944;28;20054;-66
2021/12/18 11:57:08;;;;;;;2.00;1.00;;;;;;;-0.09;96.83;100246.75;5112980;28;20039;-65
2021/12/18 11:59:39;;;;;;;6.63;1.15;;;;;;;-0.15;97.40;100248.63;5112658;28;20126;-63
2021/12/18 12:02:07;;;;;;;4.82;1.20;;;;;;;-0.19;98.01;100239.31;5112686;28;20135;-62